Time;durP1;ratioP1;P1;durP2;ratioP2;P2;SDS_P1;SDS_P2;PMS_P1;PMS_P2;Temp;Humidity;BMP_temperature;BMP_pressure;BME280_temperature;BME280_humidity;BME280_pressure;Samples;Min_cycle;Max_cycle;Signal;HPM_P1;HPM_P2
2021/06/24 00:00:47;;;;;;;;;;;;;;;25.83;68.18;100813.02;1743347;80;20194;-59
2021/06/24 00:03:15;;;;;;;;;;;;;;;25.79;68.16;100813.50;1734792;80;20137;-59
2021/06/24 00:05:41;;;;;;;;;;;;;;;25.76;68.12;100833.11;1725578;80;20207;-59
2021/06/24 00:08:08;;;;;;;;;;;;;;;25.73;68.13;100828.83;1749126;80;20197;-59
2021/06/24 00:10:35;;;;;;;;;;;;;;;25.69;68.13;100827.33;1753741;79;21153;-59
2021/06/24 00:13:01;;;;;;;;;;;;;;;25.65;68.13;100812.48;1762815;79;20390;-59
2021/06/24 00:15:28;;;;;;;;;;;;;;;25.63;68.15;100800.08;1725083;80;20461;-59
2021/06/24 00:17:54;;;;;;;;;;;;;;;25.60;68.15;100796.58;1737268;80;20368;-59
2021/06/24 00:20:20;;;;;;;;;;;;;;;25.56;68.15;100787.30;1732870;81;20415;-59
2021/06/24 00:22:46;;;;;;;;;;;;;;;25.52;68.17;100782.17;1732897;81;20546;-59
2021/06/24 00:25:13;;;;;;;;;;;;;;;25.48;68.18;100778.70;1700645;83;20199;-59
2021/06/24 00:27:39;;;;;;;;;;;;;;;25.46;68.16;100774.05;1690657;82;20443;-59
2021/06/24 00:30:06;;;;;;;;;;;;;;;25.46;68.18;100767.70;1689866;82;20499;-59
2021/06/24 00:32:32;;;;;;;;;;;;;;;25.47;68.23;100773.47;1704252;81;20196;-59
2021/06/24 00:35:02;;;;;;;;;;;;;;;25.48;68.28;100772.31;1713013;81;21182;-59
2021/06/24 00:37:28;;;;;;;;;;;;;;;25.52;68.33;100771.03;1713224;81;20129;-59
2021/06/24 00:39:55;;;;;;;;;;;;;;;25.55;68.36;100766.98;1711032;81;20145;-59
2021/06/24 00:42:22;;;;;;;;;;;;;;;25.60;68.38;100774.28;1725666;79;21048;-58
2021/06/24 00:44:48;;;;;;;;;;;;;;;25.65;68.38;100782.41;1715677;82;20138;-59
2021/06/24 00:47:15;;;;;;;;;;;;;;;25.69;68.38;100783.32;1718473;81;21167;-59
2021/06/24 00:49:41;;;;;;;;;;;;;;;25.72;68.34;100788.18;1698861;81;20197;-59
2021/06/24 00:52:07;;;;;;;;;;;;;;;25.78;68.32;100796.53;1698501;81;20209;-59
2021/06/24 00:54:33;;;;;;;;;;;;;;;25.81;68.29;100788.27;1704262;82;20349;-59
2021/06/24 00:57:00;;;;;;;;;;;;;;;25.84;68.23;100786.16;1708913;81;20151;-58
2021/06/24 00:59:26;;;;;;;;;;;;;;;25.87;68.19;100783.27;1700747;81;23274;-58
2021/06/24 01:01:52;;;;;;;;;;;;;;;25.87;68.12;100778.52;1706014;81;20233;-59
2021/06/24 01:04:22;;;;;;;;;;;;;;;25.88;68.04;100775.14;1714770;81;20218;-59
2021/06/24 01:06:50;;;;;;;;;;;;;;;25.84;67.94;100756.11;1703656;81;20171;-59
2021/06/24 01:09:16;;;;;;;;;;;;;;;25.81;67.85;100744.27;1752507;79;20220;-59
2021/06/24 01:11:42;;;;;;;;;;;;;;;25.77;67.79;100737.77;1751110;81;21152;-59
2021/06/24 01:14:09;;;;;;;;;;;;;;;25.73;67.75;100730.71;1730995;81;20137;-59
2021/06/24 01:16:36;;;;;;;;;;;;;;;25.71;67.74;100725.28;1736438;81;20165;-58
2021/06/24 01:19:02;;;;;;;;;;;;;;;25.68;67.74;100737.11;1735961;80;20188;-58
2021/06/24 01:21:28;;;;;;;;;;;;;;;25.64;67.71;100750.13;1735711;81;20143;-58
2021/06/24 01:23:54;;;;;;;;;;;;;;;25.60;67.74;100754.20;1737405;81;21163;-58
2021/06/24 01:26:21;;;;;;;;;;;;;;;25.58;67.73;100762.70;1738691;81;20240;-58
2021/06/24 01:28:48;;;;;;;;;;;;;;;25.53;67.74;100757.34;1737606;80;20865;-58
2021/06/24 01:31:14;;;;;;;;;;;;;;;25.47;67.74;100750.61;1734060;81;20456;-58
2021/06/24 01:33:41;;;;;;;;;;;;;;;25.43;67.77;100746.09;1740157;80;20136;-58
2021/06/24 01:36:07;;;;;;;;;;;;;;;25.39;67.79;100745.17;1737054;81;22002;-57
2021/06/24 01:38:34;;;;;;;;;;;;;;;25.35;67.83;100735.91;1738290;80;20416;-58
2021/06/24 01:41:00;;;;;;;;;;;;;;;25.30;67.84;100727.20;1736304;81;20115;-58
2021/06/24 01:43:26;;;;;;;;;;;;;;;25.28;67.89;100730.12;1737199;80;20177;-58
2021/06/24 01:45:55;;;;;;;;;;;;;;;25.26;67.88;100726.29;1739846;80;20465;-58
2021/06/24 01:48:21;;;;;;;;;;;;;;;25.25;67.91;100721.87;1735369;80;21664;-58
2021/06/24 01:50:47;;;;;;;;;;;;;;;25.26;67.97;100727.69;1739477;80;20232;-58
2021/06/24 01:53:14;;;;;;;;;;;;;;;25.28;68.06;100725.37;1736084;81;20218;-57
2021/06/24 01:55:40;;;;;;;;;;;;;;;25.33;68.12;100722.92;1738814;81;20166;-57
2021/06/24 01:58:08;;;;;;;;;;;;;;;25.37;68.15;100724.66;1735971;81;20140;-58
2021/06/24 02:00:34;;;;;;;;;;;;;;;25.42;68.15;100729.14;1736379;81;21161;-58
2021/06/24 02:03:02;;;;;;;;;;;;;;;25.46;68.15;100732.88;1738132;80;20437;-58
2021/06/24 02:05:28;;;;;;;;;;;;;;;25.53;68.11;100735.05;1737929;81;20141;-58
2021/06/24 02:07:55;;;;;;;;;;;;;;;25.58;68.07;100737.05;1737555;80;20618;-58
2021/06/24 02:10:21;;;;;;;;;;;;;;;25.64;68.05;100740.38;1739563;81;20225;-58
2021/06/24 02:12:47;;;;;;;;;;;;;;;25.68;68.01;100731.53;1765507;79;21031;-58
2021/06/24 02:15:14;;;;;;;;;;;;;;;25.71;67.96;100732.24;1766331;79;20164;-58
2021/06/24 02:17:40;;;;;;;;;;;;;;;25.75;67.90;100737.34;1763966;79;20488;-59
2021/06/24 02:20:08;;;;;;;;;;;;;;;25.75;67.82;100739.55;1753691;79;20404;-58
2021/06/24 02:22:35;;;;;;;;;;;;;;;25.76;67.74;100738.94;1763796;79;20408;-58
2021/06/24 02:25:01;;;;;;;;;;;;;;;25.74;67.66;100741.28;1756722;79;21170;-58
2021/06/24 02:27:27;;;;;;;;;;;;;;;25.71;67.60;100735.84;1763657;79;20350;-57
2021/06/24 02:29:53;;;;;;;;;;;;;;;25.69;67.55;100735.95;1757406;79;20391;-58
2021/06/24 02:32:19;;;;;;;;;;;;;;;25.67;67.51;100739.69;1759596;79;21346;-57
2021/06/24 02:34:46;;;;;;;;;;;;;;;25.65;67.47;100747.58;1757537;79;20145;-58
2021/06/24 02:37:13;;;;;;;;;;;;;;;25.60;67.48;100748.63;1761241;79;21830;-58
2021/06/24 02:39:39;;;;;;;;;;;;;;;25.56;67.46;100756.08;1761295;79;21589;-57
2021/06/24 02:42:06;;;;;;;;;;;;;;;25.51;67.46;100760.47;1761905;79;20212;-58
2021/06/24 02:44:32;;;;;;;;;;;;;;;25.47;67.48;100763.14;1762732;79;20498;-58
2021/06/24 02:46:58;;;;;;;;;;;;;;;25.43;67.52;100755.27;1756277;79;20644;-58
2021/06/24 02:49:25;;;;;;;;;;;;;;;25.38;67.56;100755.50;1760037;79;21185;-58
2021/06/24 02:51:51;;;;;;;;;;;;;;;25.34;67.60;100754.58;1764519;79;20137;-58
2021/06/24 02:54:17;;;;;;;;;;;;;;;25.30;67.66;100755.64;1755867;79;20173;-58
2021/06/24 02:56:43;;;;;;;;;;;;;;;25.26;67.70;100752.75;1759504;79;20169;-58
2021/06/24 02:59:10;;;;;;;;;;;;;;;25.24;67.73;100753.69;1761257;78;20175;-58
2021/06/24 03:01:36;;;;;;;;;;;;;;;25.21;67.81;100757.73;1761523;79;21019;-58
2021/06/24 03:04:03;;;;;;;;;;;;;;;25.22;67.80;100771.89;1758837;79;20223;-58
2021/06/24 03:06:30;;;;;;;;;;;;;;;25.21;67.85;100768.29;1751703;79;20155;-58
2021/06/24 03:08:56;;;;;;;;;;;;;;;25.23;67.94;100772.95;1761325;79;20162;-58
2021/06/24 03:11:22;;;;;;;;;;;;;;;25.27;68.04;100777.23;1761188;79;20399;-58
2021/06/24 03:13:49;;;;;;;;;;;;;;;25.31;68.08;100770.61;1757081;79;21191;-58
2021/06/24 03:16:16;;;;;;;;;;;;;;;25.37;68.14;100778.16;1765101;79;20568;-58
2021/06/24 03:18:42;;;;;;;;;;;;;;;25.42;68.16;100781.48;1768041;79;20209;-58
2021/06/24 03:21:08;;;;;;;;;;;;;;;25.48;68.14;100779.28;1740393;80;20171;-58
2021/06/24 03:23:35;;;;;;;;;;;;;;;25.54;68.14;100779.89;1740687;81;20212;-58
2021/06/24 03:26:01;;;;;;;;;;;;;;;25.60;68.12;100778.47;1740740;81;21984;-57
2021/06/24 03:28:27;;;;;;;;;;;;;;;25.63;68.07;100779.96;1737039;81;20090;-58
2021/06/24 03:30:53;;;;;;;;;;;;;;;25.68;68.05;100775.54;1762204;78;20180;-58
2021/06/24 03:33:19;;;;;;;;;;;;;;;25.72;67.99;100775.64;1765083;79;20437;-61
2021/06/24 03:35:49;;;;;;;;;;;;;;;25.72;67.96;100769.48;1736710;80;20839;-57
2021/06/24 03:38:14;;;;;;;;;;;;;;;25.74;67.89;100776.11;1736246;81;21087;-58
2021/06/24 03:40:43;;;;;;;;;;;;;;;25.74;67.82;100784.47;1738161;80;21644;-58
2021/06/24 03:43:09;;;;;;;;;;;;;;;25.72;67.78;100786.78;1742737;80;20462;-58
2021/06/24 03:45:37;;;;;;;;;;;;;;;25.69;67.71;100786.11;1736527;80;20434;-58
2021/06/24 03:48:04;;;;;;;;;;;;;;;25.66;67.68;100789.03;1742494;81;20225;-58
2021/06/24 03:50:30;;;;;;;;;;;;;;;25.63;67.66;100787.53;1736902;80;21213;-58
2021/06/24 03:52:56;;;;;;;;;;;;;;;25.58;67.66;100786.37;1733648;80;20176;-58
2021/06/24 03:55:43;;;;;;;;;;;;;;;25.53;67.67;100793.01;1741858;80;20209;-58
2021/06/24 03:58:06;;;;;;;;;;;;;;;25.50;67.71;100794.27;1697541;82;20485;-58
2021/06/24 04:00:34;;;;;;;;;;;;;;;25.44;67.74;100791.72;1712802;82;20483;-58
2021/06/24 04:03:00;;;;;;;;;;;;;;;25.40;67.77;100782.44;1730722;80;21902;-58
2021/06/24 04:05:30;;;;;;;;;;;;;;;25.36;67.79;100791.27;1729155;80;20575;-58
2021/06/24 04:07:54;;;;;;;;;;;;;;;25.33;67.84;100789.16;1700254;82;20189;-58
2021/06/24 04:10:20;;;;;;;;;;;;;;;25.32;67.89;100795.09;1710114;82;21894;-58
2021/06/24 04:12:47;;;;;;;;;;;;;;;25.28;67.92;100799.74;1703687;81;20191;-58
2021/06/24 04:15:14;;;;;;;;;;;;;;;25.26;67.99;100803.45;1687900;83;21283;-58
2021/06/24 04:17:40;;;;;;;;;;;;;;;25.26;67.98;100806.23;1690846;83;20836;-58
2021/06/24 04:20:07;;;;;;;;;;;;;;;25.25;68.05;100805.41;1691052;83;20232;-57
2021/06/24 04:22:33;;;;;;;;;;;;;;;25.28;68.15;100806.70;1691637;83;20504;-57
2021/06/24 04:24:59;;;;;;;;;;;;;;;25.31;68.21;100806.81;1692310;83;20259;-57
2021/06/24 04:27:25;;;;;;;;;;;;;;;25.34;68.26;100807.50;1687526;84;21161;-57
2021/06/24 04:29:52;;;;;;;;;;;;;;;25.39;68.30;100802.27;1685874;83;20176;-58
2021/06/24 04:32:18;;;;;;;;;;;;;;;25.43;68.31;100802.62;1681195;83;20219;-58
2021/06/24 04:34:44;;;;;;;;;;;;;;;25.48;68.33;100805.17;1682299;83;20194;-57
2021/06/24 04:37:10;;;;;;;;;;;;;;;25.55;68.34;100807.95;1736859;80;20191;-57
2021/06/24 04:39:36;;;;;;;;;;;;;;;25.58;68.33;100805.30;1740289;80;21027;-58
2021/06/24 04:42:03;;;;;;;;;;;;;;;25.64;68.31;100808.06;1740232;80;20197;-59
2021/06/24 04:44:30;;;;;;;;;;;;;;;25.68;68.25;100813.16;1735836;80;20177;-58
2021/06/24 04:46:56;;;;;;;;;;;;;;;25.73;68.21;100806.53;1733294;80;20557;-57
2021/06/24 04:49:22;;;;;;;;;;;;;;;25.75;68.21;100802.25;1734875;80;21470;-58
2021/06/24 04:51:48;;;;;;;;;;;;;;;25.77;68.18;100804.08;1734385;80;21113;-58
2021/06/24 04:54:14;;;;;;;;;;;;;;;25.79;68.15;100800.38;1735333;80;20475;-58
2021/06/24 04:56:40;;;;;;;;;;;;;;;25.81;68.09;100802.79;1725612;80;20396;-58
2021/06/24 04:59:07;;;;;;;;;;;;;;;25.81;68.00;100802.79;1735260;80;20450;-58
2021/06/24 05:01:33;;;;;;;;;;;;;;;25.79;67.94;100804.55;1737948;80;20486;-58
2021/06/24 05:03:59;;;;;;;;;;;;;;;25.77;67.89;100799.09;1733437;80;21107;-58
2021/06/24 05:06:26;;;;;;;;;;;;;;;25.74;67.85;100792.25;1732762;80;20378;-58
2021/06/24 05:08:52;;;;;;;;;;;;;;;25.72;67.81;100785.39;1728546;80;20152;-58
2021/06/24 05:11:18;;;;;;;;;;;;;;;25.69;67.81;100786.92;1737459;80;20188;-58
2021/06/24 05:13:44;;;;;;;;;;;;;;;25.66;67.79;100779.86;1759710;78;20156;-59
2021/06/24 05:16:10;;;;;;;;;;;;;;;25.63;67.78;100788.92;1759661;79;21156;-58
2021/06/24 05:18:36;;;;;;;;;;;;;;;25.61;67.79;100788.45;1760422;79;20172;-58
2021/06/24 05:21:03;;;;;;;;;;;;;;;25.57;67.80;100789.75;1771865;79;20325;-59
2021/06/24 05:23:29;;;;;;;;;;;;;;;25.54;67.83;100782.09;1763108;79;20156;-58
2021/06/24 05:25:55;;;;;;;;;;;;;;;25.51;67.83;100789.72;1766740;79;20112;-58
2021/06/24 05:28:21;;;;;;;;;;;;;;;25.48;67.88;100792.63;1752404;79;21056;-57
2021/06/24 05:30:47;;;;;;;;;;;;;;;25.46;67.93;100800.52;1761011;79;21012;-58
2021/06/24 05:33:14;;;;;;;;;;;;;;;25.45;67.95;100800.31;1766391;79;20603;-60
2021/06/24 05:35:40;;;;;;;;;;;;;;;25.45;67.94;100794.73;1727256;80;20509;-58
2021/06/24 05:38:13;;;;;;;;;;;;;;;25.47;67.97;100795.76;1758007;79;20327;-58
2021/06/24 05:40:39;;;;;;;;;;;;;;;25.47;68.05;100796.58;1752633;79;21211;-59
2021/06/24 05:43:06;;;;;;;;;;;;;;;25.49;68.11;100807.38;1759844;79;20196;-58
2021/06/24 05:45:32;;;;;;;;;;;;;;;25.52;68.18;100803.06;1765420;79;20227;-57
2021/06/24 05:47:58;;;;;;;;;;;;;;;25.56;68.22;100815.16;1757171;79;20208;-57
2021/06/24 05:50:24;;;;;;;;;;;;;;;25.61;68.26;100810.74;1756323;79;20204;-57
2021/06/24 05:52:53;;;;;;;;;;;;;;;25.65;68.28;100809.69;1755923;79;21111;-58
2021/06/24 05:55:20;;;;;;;;;;;;;;;25.68;68.28;100807.59;1733651;81;20157;-57
2021/06/24 05:57:46;;;;;;;;;;;;;;;25.72;68.31;100800.14;1756808;79;20458;-57
2021/06/24 06:00:13;;;;;;;;;;;;;;;25.76;68.29;100804.42;1763933;79;20188;-57
2021/06/24 06:02:40;;;;;;;;;;;;;;;25.81;68.29;100805.58;1759567;79;20147;-58
2021/06/24 06:05:07;;;;;;;;;;;;;;;25.83;68.27;100802.69;1761009;79;22440;-57
2021/06/24 06:07:34;;;;;;;;;;;;;;;25.87;68.26;100812.53;1760407;79;20484;-58
2021/06/24 06:10:00;;;;;;;;;;;;;;;25.88;68.22;100816.95;1758991;79;20777;-58
2021/06/24 06:12:28;;;;;;;;;;;;;;;25.89;68.19;100815.77;1759763;79;20159;-58
2021/06/24 06:14:54;;;;;;;;;;;;;;;25.89;68.13;100808.80;1761128;79;20210;-57
2021/06/24 06:17:20;;;;;;;;;;;;;;;25.87;68.08;100804.98;1760989;79;21916;-58
2021/06/24 06:19:47;;;;;;;;;;;;;;;25.86;68.06;100813.70;1767981;79;20204;-57
2021/06/24 06:22:13;;;;;;;;;;;;;;;25.85;68.02;100814.27;1764207;79;20182;-58
2021/06/24 06:24:39;;;;;;;;;;;;;;;25.82;67.98;100808.59;1752831;80;20227;-58
2021/06/24 06:27:06;;;;;;;;;;;;;;;25.80;67.98;100816.52;1756211;80;20259;-57
2021/06/24 06:29:32;;;;;;;;;;;;;;;25.76;67.97;100810.81;1706616;82;21111;-57
2021/06/24 06:31:58;;;;;;;;;;;;;;;25.75;67.98;100809.79;1758389;80;20196;-57
2021/06/24 06:34:25;;;;;;;;;;;;;;;25.71;67.99;100806.09;1757692;80;20173;-58
2021/06/24 06:36:51;;;;;;;;;;;;;;;25.67;68.01;100807.38;1757298;80;20475;-57
2021/06/24 06:39:18;;;;;;;;;;;;;;;25.65;68.01;100811.09;1756898;80;20199;-58
2021/06/24 06:41:44;;;;;;;;;;;;;;;25.62;68.03;100805.41;1760550;80;22012;-58
2021/06/24 06:44:10;;;;;;;;;;;;;;;25.59;68.07;100807.52;1758797;80;20164;-58
2021/06/24 06:46:37;;;;;;;;;;;;;;;25.57;68.10;100806.46;1759546;80;20183;-58
2021/06/24 06:49:03;;;;;;;;;;;;;;;25.57;68.11;100807.03;1761565;79;20227;-58
2021/06/24 06:51:29;;;;;;;;;;;;;;;25.57;68.13;100805.07;1755271;80;20224;-58
2021/06/24 06:53:55;;;;;;;;;;;;;;;25.58;68.19;100799.73;1759749;79;21155;-58
2021/06/24 06:56:21;;;;;;;;;;;;;;;25.58;68.25;100795.55;1728245;81;20175;-58
2021/06/24 06:58:48;;;;;;;;;;;;;;;25.62;68.33;100801.23;1758735;79;20129;-59
2021/06/24 07:01:15;;;;;;;;;;;;;;;25.64;68.38;100792.73;1758267;79;20740;-58
2021/06/24 07:03:41;;;;;;;;;;;;;;;25.68;68.41;100794.23;1758692;80;20144;-58
2021/06/24 07:06:07;;;;;;;;;;;;;;;25.71;68.42;100790.19;1757426;79;21058;-58
2021/06/24 07:08:34;;;;;;;;;;;;;;;25.74;68.44;100790.86;1756781;80;20186;-58
2021/06/24 07:11:00;;;;;;;;;;;;;;;25.79;68.43;100795.38;1760329;79;20243;-58
2021/06/24 07:13:26;;;;;;;;;;;;;;;25.82;68.39;100796.87;1768966;79;20240;-58
2021/06/24 07:15:56;;;;;;;;;;;;;;;25.86;68.36;100801.97;1771417;79;20207;-58
2021/06/24 07:18:20;;;;;;;;;;;;;;;25.89;68.34;100801.83;1761389;79;21000;-59
2021/06/24 07:20:47;;;;;;;;;;;;;;;25.90;68.32;100802.87;1757851;79;20160;-58
2021/06/24 07:23:13;;;;;;;;;;;;;;;25.93;68.27;100798.56;1764527;79;20149;-58
2021/06/24 07:25:39;;;;;;;;;;;;;;;25.95;68.20;100805.19;1767379;79;20184;-58
2021/06/24 07:28:07;;;;;;;;;;;;;;;25.94;68.14;100811.34;1756299;79;20239;-58
2021/06/24 07:30:34;;;;;;;;;;;;;;;25.93;68.07;100809.71;1765313;79;21141;-59
2021/06/24 07:33:00;;;;;;;;;;;;;;;25.91;68.01;100808.69;1770501;79;21060;-58
2021/06/24 07:35:26;;;;;;;;;;;;;;;25.90;67.95;100806.25;1765161;79;20958;-58
2021/06/24 07:37:53;;;;;;;;;;;;;;;25.88;67.91;100809.41;1762856;79;20207;-58
2021/06/24 07:40:19;;;;;;;;;;;;;;;25.85;67.89;100814.27;1762457;79;20196;-58
2021/06/24 07:42:46;;;;;;;;;;;;;;;25.82;67.87;100808.59;1762659;79;21161;-58
2021/06/24 07:45:13;;;;;;;;;;;;;;;25.79;67.87;100808.73;1733655;80;20144;-58
2021/06/24 07:47:39;;;;;;;;;;;;;;;25.77;67.87;100813.02;1772525;78;20151;-58
2021/06/24 07:50:06;;;;;;;;;;;;;;;25.74;67.87;100817.34;1758228;79;20231;-58
2021/06/24 07:52:32;;;;;;;;;;;;;;;25.71;67.87;100818.62;1767869;79;20145;-59
2021/06/24 07:54:58;;;;;;;;;;;;;;;25.67;67.89;100818.52;1764981;79;21096;-58
2021/06/24 07:57:24;;;;;;;;;;;;;;;25.66;67.90;100816.89;1761871;79;20211;-58
2021/06/24 07:59:50;;;;;;;;;;;;;;;25.63;67.89;100816.18;1764505;79;20281;-58
2021/06/24 08:02:17;;;;;;;;;;;;;;;25.61;67.89;100812.14;1763761;79;20196;-58
2021/06/24 08:04:43;;;;;;;;;;;;;;;25.59;67.90;100806.13;1763480;79;20141;-58
2021/06/24 08:07:10;;;;;;;;;;;;;;;25.59;67.89;100804.73;1767590;79;23264;-58
2021/06/24 08:09:36;;;;;;;;;;;;;;;25.60;67.89;100798.78;1761345;79;20231;-58
2021/06/24 08:12:03;;;;;;;;;;;;;;;25.61;67.92;100802.38;1751993;79;20192;-58
2021/06/24 08:14:29;;;;;;;;;;;;;;;25.62;67.96;100804.02;1755773;79;20233;-58
2021/06/24 08:16:56;;;;;;;;;;;;;;;25.64;68.01;100796.91;1766634;79;20148;-58
2021/06/24 08:19:22;;;;;;;;;;;;;;;25.67;68.05;100807.38;1769738;78;21093;-59
2021/06/24 08:21:48;;;;;;;;;;;;;;;25.70;68.06;100801.09;1766830;79;20430;-58
2021/06/24 08:24:14;;;;;;;;;;;;;;;25.73;68.08;100794.80;1763007;79;20153;-58
2021/06/24 08:26:40;;;;;;;;;;;;;;;25.77;68.08;100794.91;1762943;79;20180;-58
2021/06/24 08:29:07;;;;;;;;;;;;;;;25.82;68.09;100796.05;1760439;79;20422;-58
2021/06/24 08:31:33;;;;;;;;;;;;;;;25.86;68.07;100797.78;1761528;79;20282;-59
2021/06/24 08:33:59;;;;;;;;;;;;;;;25.90;68.06;100793.13;1766523;79;20975;-58
2021/06/24 08:36:26;;;;;;;;;;;;;;;25.95;68.01;100788.47;1764459;79;20286;-58
2021/06/24 08:38:52;;;;;;;;;;;;;;;25.97;68.00;100780.57;1765347;79;20443;-58
2021/06/24 08:41:19;;;;;;;;;;;;;;;26.00;67.96;100786.83;1775414;79;20430;-58
2021/06/24 08:43:46;;;;;;;;;;;;;;;26.00;67.90;100776.48;1767825;79;21965;-58
2021/06/24 08:46:12;;;;;;;;;;;;;;;26.02;67.85;100778.90;1762102;79;20131;-58
2021/06/24 08:48:38;;;;;;;;;;;;;;;26.00;67.80;100775.67;1762792;79;20423;-58
2021/06/24 08:51:05;;;;;;;;;;;;;;;25.99;67.74;100777.64;1771257;79;20476;-58
2021/06/24 08:53:32;;;;;;;;;;;;;;;25.98;67.69;100773.80;1764162;79;20161;-58
2021/06/24 08:55:58;;;;;;;;;;;;;;;25.96;67.64;100777.55;1766890;79;21932;-59
2021/06/24 08:58:25;;;;;;;;;;;;;;;25.93;67.63;100771.50;1763196;79;21603;-59
2021/06/24 09:00:52;;;;;;;;;;;;;;;25.90;67.59;100775.01;1766653;78;20163;-59
2021/06/24 09:03:22;;;;;;;;;;;;;;;25.87;67.58;100767.94;1771691;79;20137;-61
2021/06/24 09:06:06;;;;;;;;;;;;;;;25.85;67.59;100771.65;1772369;79;20154;-58
2021/06/24 09:08:45;;;;;;;;;;;;;;;25.81;67.58;100766.55;1765495;79;21221;-59
2021/06/24 09:11:24;;;;;;;;;;;;;;;25.79;67.60;100771.11;1734811;80;20202;-59
2021/06/24 09:14:02;;;;;;;;;;;;;;;25.76;67.57;100767.62;1707126;82;20448;-59
2021/06/24 09:16:30;;;;;;;;;;;;;;;25.73;67.58;100772.52;1696935;83;21902;-59
2021/06/24 09:19:14;;;;;;;;;;;;;;;25.71;67.61;100770.67;1709454;82;20160;-59
2021/06/24 09:21:41;;;;;;;;;;;;;;;25.69;67.60;100766.02;1705375;81;21148;-59
2021/06/24 09:24:28;;;;;;;;;;;;;;;25.68;67.61;100770.55;1757326;79;20152;-59
2021/06/24 09:26:55;;;;;;;;;;;;;;;25.67;67.58;100764.19;1705792;82;20145;-59
2021/06/24 09:29:21;;;;;;;;;;;;;;;25.68;67.58;100768.58;1690486;82;21924;-58
2021/06/24 09:31:49;;;;;;;;;;;;;;;25.69;67.61;100757.66;1752557;79;20138;-59
2021/06/24 09:34:17;;;;;;;;;;;;;;;25.71;67.65;100765.68;1761418;79;21163;-59
2021/06/24 09:36:45;;;;;;;;;;;;;;;25.75;67.71;100765.20;1763066;79;20575;-59
2021/06/24 09:39:24;;;;;;;;;;;;;;;25.78;67.73;100763.09;1764248;79;20141;-59
2021/06/24 09:42:06;;;;;;;;;;;;;;;25.81;67.72;100768.77;1725386;81;20177;-59
2021/06/24 09:44:32;;;;;;;;;;;;;;;25.86;67.74;100760.16;1695810;83;20387;-59
2021/06/24 09:46:59;;;;;;;;;;;;;;;25.91;67.72;100756.31;1736716;81;21180;-59
2021/06/24 09:49:32;;;;;;;;;;;;;;;25.96;67.70;100752.45;1728837;81;20263;-59
2021/06/24 09:52:00;;;;;;;;;;;;;;;26.00;67.67;100761.15;1764427;79;20334;-59
2021/06/24 09:54:35;;;;;;;;;;;;;;;26.05;67.63;100754.52;1758388;79;20525;-58
2021/06/24 09:57:03;;;;;;;;;;;;;;;26.08;67.58;100753.21;1755962;79;20188;-58
2021/06/24 09:59:39;;;;;;;;;;;;;;;26.11;67.53;100750.28;1729923;81;21148;-59
2021/06/24 10:02:07;;;;;;;;;;;;;;;26.13;67.49;100754.94;1697477;83;20174;-59
2021/06/24 10:04:34;;;;;;;;;;;;;;;26.14;67.41;100755.95;1696875;82;20499;-59
2021/06/24 10:07:01;;;;;;;;;;;;;;;26.14;67.34;100753.16;1692070;82;20556;-59
2021/06/24 10:09:28;;;;;;;;;;;;;;;26.15;67.25;100752.00;1724986;81;20206;-59
2021/06/24 10:11:54;;;;;;;;;;;;;;;26.15;67.21;100749.80;1729301;81;23210;-59
2021/06/24 10:14:21;;;;;;;;;;;;;;;26.13;67.16;100750.17;1733028;80;20227;-59
2021/06/24 10:16:53;;;;;;;;;;;;;;;26.12;67.12;100744.36;1767267;78;20176;-59
2021/06/24 10:19:31;;;;;;;;;;;;;;;26.11;67.11;100746.91;1773541;79;20355;-59
2021/06/24 10:22:14;;;;;;;;;;;;;;;26.10;67.06;100745.86;1771697;78;20191;-59
2021/06/24 10:24:46;;;;;;;;;;;;;;;26.10;67.02;100750.86;1765285;78;21968;-59
2021/06/24 10:27:12;;;;;;;;;;;;;;;26.08;66.99;100746.24;1765565;78;21645;-58
2021/06/24 10:29:45;;;;;;;;;;;;;;;26.06;66.97;100733.80;1780444;79;20188;-58
2021/06/24 10:32:29;;;;;;;;;;;;;;;26.05;66.96;100736.39;1735262;80;20150;-58
2021/06/24 10:34:55;;;;;;;;;;;;;;;26.04;66.94;100726.39;1779586;78;20137;-58
2021/06/24 10:37:23;;;;;;;;;;;;;;;26.03;66.92;100735.92;1771450;79;21129;-58
2021/06/24 10:39:51;;;;;;;;;;;;;;;26.02;66.91;100733.71;1773316;78;20192;-58
2021/06/24 10:42:17;;;;;;;;;;;;;;;26.02;66.91;100739.87;1768149;78;20148;-59
2021/06/24 10:44:49;;;;;;;;;;;;;;;26.00;66.90;100733.27;1777549;78;21889;-59
2021/06/24 10:47:31;;;;;;;;;;;;;;;26.00;66.88;100740.24;1771202;79;20137;-58
2021/06/24 10:50:30;;;;;;;;;;;;;;;26.02;66.87;100734.30;1777733;78;21148;-58
2021/06/24 10:53:09;;;;;;;;;;;;;;;26.04;66.84;100732.78;1771233;78;20222;-58
2021/06/24 10:55:42;;;;;;;;;;;;;;;26.07;66.83;100737.64;1758888;80;20175;-58
2021/06/24 10:58:15;;;;;;;;;;;;;;;26.09;66.83;100731.14;1735374;80;20483;-58
2021/06/24 11:00:48;;;;;;;;;;;;;;;26.13;66.82;100727.05;1777788;79;20245;-58
2021/06/24 11:03:15;;;;;;;;;;;;;;;26.18;66.84;100731.77;1776727;78;21160;-59
2021/06/24 11:05:43;;;;;;;;;;;;;;;26.22;66.82;100731.91;1773125;79;20137;-58
2021/06/24 11:08:13;;;;;;;;;;;;;;;26.27;66.78;100729.65;1769953;78;20195;-59
2021/06/24 11:11:03;;;;;;;;;;;;;;;26.31;66.76;100733.34;1776197;78;20487;-58
2021/06/24 11:13:44;;;;;;;;;;;;;;;26.35;66.70;100737.03;1772029;78;20132;-59
2021/06/24 11:16:13;;;;;;;;;;;;;;;26.40;66.65;100727.59;1754754;80;21086;-59
2021/06/24 11:18:43;;;;;;;;;;;;;;;26.44;66.56;100728.49;1754971;80;20201;-59
2021/06/24 11:21:10;;;;;;;;;;;;;;;26.46;66.49;100724.77;1759256;79;20407;-58
2021/06/24 11:23:43;;;;;;;;;;;;;;;26.48;66.40;100728.61;1749304;80;20642;-59
2021/06/24 11:26:12;;;;;;;;;;;;;;;26.51;66.34;100732.06;1752344;79;20192;-59
2021/06/24 11:31:12;;;;;;;;;;;;;;;26.51;66.16;100717.53;1747742;79;20176;-59
2021/06/24 11:33:52;;;;;;;;;;;;;;;26.51;66.08;100723.11;1753385;79;20375;-59
2021/06/24 11:36:19;;;;;;;;;;;;;;;26.50;66.01;100723.47;1754877;79;20498;-58
2021/06/24 11:38:48;;;;;;;;;;;;;;;26.49;65.99;100711.48;1715898;81;20155;-59
2021/06/24 11:41:19;;;;;;;;;;;;;;;26.47;65.92;100712.45;1756275;80;21134;-59
2021/06/24 11:44:02;;;;;;;;;;;;;;;26.47;65.88;100708.84;1752087;80;20141;-58
2021/06/24 11:46:30;;;;;;;;;;;;;;;26.45;65.85;100705.02;1751568;80;20169;-59
2021/06/24 11:49:10;;;;;;;;;;;;;;;26.45;65.79;100703.62;1751486;80;20486;-58
2021/06/24 12:05:10;;;;;;;;;;;;;;;26.41;65.65;100695.74;1750836;80;20151;-59
2021/06/24 12:07:38;;;;;;;;;;;;;;;26.41;65.62;100696.33;1749140;80;20971;-59
2021/06/24 12:10:06;;;;;;;;;;;;;;;26.40;65.61;100699.70;1751580;80;20417;-59
2021/06/24 12:12:32;;;;;;;;;;;;;;;26.40;65.60;100698.30;1748819;80;20506;-59
2021/06/24 12:15:02;;;;;;;;;;;;;;;26.41;65.58;100708.30;1760057;79;20450;-59
2021/06/24 12:17:34;;;;;;;;;;;;;;;26.41;65.58;100705.51;1768319;79;20665;-59
2021/06/24 12:20:12;;;;;;;;;;;;;;;26.44;65.53;100697.02;1763697;79;21170;-59
2021/06/24 12:22:41;;;;;;;;;;;;;;;26.47;65.53;100696.30;1767869;79;20595;-59
2021/06/24 12:25:16;;;;;;;;;;;;;;;26.50;65.53;100695.56;1761877;79;20133;-59
2021/06/24 12:27:49;;;;;;;;;;;;;;;26.53;65.57;100699.83;1761982;79;20543;-60
2021/06/24 12:30:24;;;;;;;;;;;;;;;26.59;65.58;100697.59;1760707;79;20157;-60
2021/06/24 12:32:56;;;;;;;;;;;;;;;26.63;65.56;100691.51;1755662;79;21107;-59
2021/06/24 12:35:25;;;;;;;;;;;;;;;26.69;65.55;100691.47;1753269;79;20721;-59
2021/06/24 12:37:52;;;;;;;;;;;;;;;26.73;65.55;100689.58;1760264;79;20420;-59
2021/06/24 12:40:19;;;;;;;;;;;;;;;26.79;65.51;100688.92;1756693;79;20220;-59
2021/06/24 12:42:47;;;;;;;;;;;;;;;26.84;65.46;100679.46;1762386;79;20187;-59
2021/06/24 12:45:14;;;;;;;;;;;;;;;26.88;65.42;100679.56;1767036;79;21150;-60
2021/06/24 12:47:43;;;;;;;;;;;;;;;26.92;65.37;100671.50;1762050;79;20210;-59
2021/06/24 12:50:15;;;;;;;;;;;;;;;26.95;65.29;100669.95;1755976;79;20142;-59
2021/06/24 12:52:51;;;;;;;;;;;;;;;26.98;65.25;100665.06;1764020;79;20622;-60
2021/06/24 12:55:43;;;;;;;;;;;;;;;26.99;65.15;100663.28;1758377;79;20168;-59